sensor_id;sensor_type;location;lat;lon;timestamp;pressure;altitude;pressure_sealevel;temperature;humidity
56042;BME280;48756;41.374;2.066;2023-09-18T00:00:48;100764.88;;;26.11;100.00
56042;BME280;48756;41.374;2.066;2023-09-18T00:03:19;100757.47;;;26.15;100.00
56042;BME280;48756;41.374;2.066;2023-09-18T00:05:46;100757.88;;;26.21;100.00
56042;BME280;48756;41.374;2.066;2023-09-18T00:08:13;100760.31;;;26.24;100.00
56042;BME280;48756;41.374;2.066;2023-09-18T00:10:46;100754.53;;;26.31;100.00
56042;BME280;48756;41.374;2.066;2023-09-18T00:13:12;100740.84;;;26.35;100.00
56042;BME280;48756;41.374;2.066;2023-09-18T00:15:38;100740.00;;;26.35;100.00
56042;BME280;48756;41.374;2.066;2023-09-18T00:18:04;100735.28;;;26.38;100.00
56042;BME280;48756;41.374;2.066;2023-09-18T00:20:30;100722.72;;;26.28;100.00
56042;BME280;48756;41.374;2.066;2023-09-18T00:22:56;100717.69;;;26.23;100.00
56042;BME280;48756;41.374;2.066;2023-09-18T00:25:22;100710.31;;;26.27;100.00
56042;BME280;48756;41.374;2.066;2023-09-18T00:27:48;100700.88;;;26.34;100.00
56042;BME280;48756;41.374;2.066;2023-09-18T00:30:14;100694.34;;;26.38;99.83
56042;BME280;48756;41.374;2.066;2023-09-18T00:32:40;100692.00;;;26.33;100.00
56042;BME280;48756;41.374;2.066;2023-09-18T00:35:06;100695.69;;;26.19;100.00
56042;BME280;48756;41.374;2.066;2023-09-18T00:37:31;100685.44;;;26.26;100.00
56042;BME280;48756;41.374;2.066;2023-09-18T00:39:57;100687.19;;;26.14;100.00
56042;BME280;48756;41.374;2.066;2023-09-18T00:42:24;100678.56;;;25.87;98.31
56042;BME280;48756;41.374;2.066;2023-09-18T00:44:49;100673.38;;;25.97;97.97
56042;BME280;48756;41.374;2.066;2023-09-18T00:47:16;100674.72;;;25.91;97.25
56042;BME280;48756;41.374;2.066;2023-09-18T00:49:46;100686.31;;;26.03;96.87
56042;BME280;48756;41.374;2.066;2023-09-18T00:52:14;100679.66;;;26.08;97.06
56042;BME280;48756;41.374;2.066;2023-09-18T00:54:42;100679.41;;;26.11;96.46
56042;BME280;48756;41.374;2.066;2023-09-18T00:57:09;100672.59;;;26.07;95.01
56042;BME280;48756;41.374;2.066;2023-09-18T00:59:36;100670.56;;;26.11;95.43
56042;BME280;48756;41.374;2.066;2023-09-18T01:02:02;100668.63;;;26.13;95.19
56042;BME280;48756;41.374;2.066;2023-09-18T01:04:29;100662.41;;;26.12;95.58
56042;BME280;48756;41.374;2.066;2023-09-18T01:06:58;100660.25;;;26.17;95.92
56042;BME280;48756;41.374;2.066;2023-09-18T01:09:24;100660.84;;;26.10;95.77
56042;BME280;48756;41.374;2.066;2023-09-18T01:14:44;100646.63;;;26.09;94.84
56042;BME280;48756;41.374;2.066;2023-09-18T01:17:15;100645.66;;;26.10;95.63
56042;BME280;48756;41.374;2.066;2023-09-18T01:19:43;100629.72;;;25.98;95.47
56042;BME280;48756;41.374;2.066;2023-09-18T01:22:17;100624.66;;;26.06;95.10
56042;BME280;48756;41.374;2.066;2023-09-18T01:24:44;100627.44;;;26.04;94.97
56042;BME280;48756;41.374;2.066;2023-09-18T01:27:12;100629.59;;;25.99;94.95
56042;BME280;48756;41.374;2.066;2023-09-18T01:29:38;100634.28;;;25.84;95.42
56042;BME280;48756;41.374;2.066;2023-09-18T01:32:04;100647.75;;;25.83;95.99
56042;BME280;48756;41.374;2.066;2023-09-18T01:34:33;100647.53;;;25.97;94.79
56042;BME280;48756;41.374;2.066;2023-09-18T01:37:04;100639.50;;;25.86;95.56
56042;BME280;48756;41.374;2.066;2023-09-18T01:39:31;100643.03;;;25.86;95.08
56042;BME280;48756;41.374;2.066;2023-09-18T01:41:59;100643.53;;;25.91;95.53
56042;BME280;48756;41.374;2.066;2023-09-18T01:44:25;100646.56;;;25.98;94.12
56042;BME280;48756;41.374;2.066;2023-09-18T01:46:52;100634.69;;;26.02;95.32
56042;BME280;48756;41.374;2.066;2023-09-18T01:49:32;100633.00;;;26.01;96.01
56042;BME280;48756;41.374;2.066;2023-09-18T01:52:00;100623.50;;;25.97;95.61
56042;BME280;48756;41.374;2.066;2023-09-18T01:54:25;100622.75;;;25.84;94.58
56042;BME280;48756;41.374;2.066;2023-09-18T01:56:52;100632.63;;;25.71;96.22
56042;BME280;48756;41.374;2.066;2023-09-18T01:59:19;100623.91;;;25.80;95.49
56042;BME280;48756;41.374;2.066;2023-09-18T02:01:45;100611.66;;;25.77;95.80
56042;BME280;48756;41.374;2.066;2023-09-18T02:04:11;100598.25;;;25.66;96.45
56042;BME280;48756;41.374;2.066;2023-09-18T02:06:36;100589.06;;;25.70;96.47
56042;BME280;48756;41.374;2.066;2023-09-18T02:09:02;100589.91;;;25.71;95.88
56042;BME280;48756;41.374;2.066;2023-09-18T02:11:29;100589.56;;;25.75;96.30
56042;BME280;48756;41.374;2.066;2023-09-18T02:13:55;100581.97;;;25.82;95.65
56042;BME280;48756;41.374;2.066;2023-09-18T02:16:21;100582.84;;;25.82;96.46
56042;BME280;48756;41.374;2.066;2023-09-18T02:18:49;100584.75;;;25.80;95.88
56042;BME280;48756;41.374;2.066;2023-09-18T02:21:19;100587.53;;;25.79;96.00
56042;BME280;48756;41.374;2.066;2023-09-18T02:23:45;100578.63;;;25.67;97.10
56042;BME280;48756;41.374;2.066;2023-09-18T02:26:11;100583.63;;;25.72;96.79
56042;BME280;48756;41.374;2.066;2023-09-18T02:28:37;100585.19;;;25.74;97.09
56042;BME280;48756;41.374;2.066;2023-09-18T02:31:02;100585.56;;;25.70;97.52
56042;BME280;48756;41.374;2.066;2023-09-18T02:33:28;100587.50;;;25.55;98.52
56042;BME280;48756;41.374;2.066;2023-09-18T02:35:54;100574.34;;;25.64;98.01
56042;BME280;48756;41.374;2.066;2023-09-18T02:38:19;100571.91;;;25.61;98.12
56042;BME280;48756;41.374;2.066;2023-09-18T02:40:45;100575.00;;;25.55;97.82
56042;BME280;48756;41.374;2.066;2023-09-18T02:43:10;100579.63;;;25.53;96.77
56042;BME280;48756;41.374;2.066;2023-09-18T02:45:36;100577.91;;;25.52;96.79
56042;BME280;48756;41.374;2.066;2023-09-18T02:48:02;100572.22;;;25.57;96.49
56042;BME280;48756;41.374;2.066;2023-09-18T02:50:31;100585.50;;;25.58;97.12
56042;BME280;48756;41.374;2.066;2023-09-18T02:52:56;100584.28;;;25.62;96.00
56042;BME280;48756;41.374;2.066;2023-09-18T02:55:22;100586.09;;;25.62;96.63
56042;BME280;48756;41.374;2.066;2023-09-18T02:57:48;100584.28;;;25.62;95.75
56042;BME280;48756;41.374;2.066;2023-09-18T03:00:14;100585.38;;;25.60;96.12
56042;BME280;48756;41.374;2.066;2023-09-18T03:02:39;100591.31;;;25.63;96.29
56042;BME280;48756;41.374;2.066;2023-09-18T03:05:05;100595.63;;;25.53;96.96
56042;BME280;48756;41.374;2.066;2023-09-18T03:07:30;100591.13;;;25.54;97.61
56042;BME280;48756;41.374;2.066;2023-09-18T03:09:56;100585.56;;;25.57;97.33
56042;BME280;48756;41.374;2.066;2023-09-18T03:12:22;100595.13;;;25.48;97.44
56042;BME280;48756;41.374;2.066;2023-09-18T03:14:48;100593.81;;;25.54;98.07
56042;BME280;48756;41.374;2.066;2023-09-18T03:17:14;100601.69;;;25.31;99.84
56042;BME280;48756;41.374;2.066;2023-09-18T03:19:40;100586.00;;;25.40;100.00
56042;BME280;48756;41.374;2.066;2023-09-18T03:22:06;100576.81;;;25.31;100.00
56042;BME280;48756;41.374;2.066;2023-09-18T03:24:32;100582.38;;;25.28;100.00
56042;BME280;48756;41.374;2.066;2023-09-18T03:26:57;100582.84;;;25.22;100.00
56042;BME280;48756;41.374;2.066;2023-09-18T03:29:23;100588.03;;;25.36;100.00
56042;BME280;48756;41.374;2.066;2023-09-18T03:31:49;100592.56;;;25.23;100.00
56042;BME280;48756;41.374;2.066;2023-09-18T03:34:14;100603.00;;;25.26;100.00
56042;BME280;48756;41.374;2.066;2023-09-18T03:36:40;100606.78;;;25.34;100.00
56042;BME280;48756;41.374;2.066;2023-09-18T03:39:06;100602.88;;;25.27;100.00
56042;BME280;48756;41.374;2.066;2023-09-18T03:41:31;100605.88;;;25.23;100.00
56042;BME280;48756;41.374;2.066;2023-09-18T03:44:00;100616.84;;;25.31;100.00
56042;BME280;48756;41.374;2.066;2023-09-18T03:46:26;100616.59;;;25.34;100.00
56042;BME280;48756;41.374;2.066;2023-09-18T03:48:52;100624.31;;;25.26;100.00
56042;BME280;48756;41.374;2.066;2023-09-18T03:51:17;100635.56;;;25.06;100.00
56042;BME280;48756;41.374;2.066;2023-09-18T03:53:44;100648.69;;;24.96;100.00
56042;BME280;48756;41.374;2.066;2023-09-18T03:56:10;100642.50;;;25.08;100.00
56042;BME280;48756;41.374;2.066;2023-09-18T03:58:36;100633.75;;;25.06;100.00
56042;BME280;48756;41.374;2.066;2023-09-18T04:01:02;100632.91;;;25.06;100.00
56042;BME280;48756;41.374;2.066;2023-09-18T04:03:27;100623.44;;;25.01;100.00
56042;BME280;48756;41.374;2.066;2023-09-18T04:05:53;100623.72;;;25.10;100.00
56042;BME280;48756;41.374;2.066;2023-09-18T04:08:19;100634.06;;;24.89;100.00
56042;BME280;48756;41.374;2.066;2023-09-18T04:10:44;100635.06;;;25.00;100.00
56042;BME280;48756;41.374;2.066;2023-09-18T04:13:10;100639.72;;;24.84;100.00
56042;BME280;48756;41.374;2.066;2023-09-18T04:15:37;100638.66;;;24.74;100.00
56042;BME280;48756;41.374;2.066;2023-09-18T04:18:04;100640.34;;;24.88;100.00
56042;BME280;48756;41.374;2.066;2023-09-18T04:20:30;100639.94;;;24.81;100.00
56042;BME280;48756;41.374;2.066;2023-09-18T04:23:25;100634.31;;;24.73;100.00
56042;BME280;48756;41.374;2.066;2023-09-18T04:25:52;100626.63;;;24.81;100.00
56042;BME280;48756;41.374;2.066;2023-09-18T04:28:20;100625.03;;;24.79;100.00
56042;BME280;48756;41.374;2.066;2023-09-18T04:30:46;100635.78;;;24.77;100.00
56042;BME280;48756;41.374;2.066;2023-09-18T04:33:14;100642.16;;;24.87;100.00
56042;BME280;48756;41.374;2.066;2023-09-18T04:35:39;100648.78;;;24.82;100.00
56042;BME280;48756;41.374;2.066;2023-09-18T04:38:07;100652.84;;;25.00;99.91
56042;BME280;48756;41.374;2.066;2023-09-18T04:40:36;100646.56;;;25.01;100.00
56042;BME280;48756;41.374;2.066;2023-09-18T04:43:02;100642.81;;;24.91;98.08
56042;BME280;48756;41.374;2.066;2023-09-18T04:45:31;100625.44;;;24.85;96.76
56042;BME280;48756;41.374;2.066;2023-09-18T04:47:58;100615.66;;;24.73;95.82
56042;BME280;48756;41.374;2.066;2023-09-18T04:50:24;100605.69;;;24.88;95.99
56042;BME280;48756;41.374;2.066;2023-09-18T04:52:52;100606.97;;;25.08;94.39
56042;BME280;48756;41.374;2.066;2023-09-18T04:55:19;100603.13;;;25.12;94.40
56042;BME280;48756;41.374;2.066;2023-09-18T04:57:45;100595.03;;;25.13;93.95
56042;BME280;48756;41.374;2.066;2023-09-18T05:00:11;100595.06;;;25.00;94.70
56042;BME280;48756;41.374;2.066;2023-09-18T05:02:39;100600.59;;;24.97;94.30
56042;BME280;48756;41.374;2.066;2023-09-18T05:05:06;100623.94;;;25.07;93.77
56042;BME280;48756;41.374;2.066;2023-09-18T05:07:34;100615.72;;;25.10;94.07
56042;BME280;48756;41.374;2.066;2023-09-18T05:10:00;100606.72;;;25.23;94.36
56042;BME280;48756;41.374;2.066;2023-09-18T05:12:25;100604.19;;;25.22;94.63
56042;BME280;48756;41.374;2.066;2023-09-18T05:14:51;100617.53;;;24.96;94.80
56042;BME280;48756;41.374;2.066;2023-09-18T05:17:17;100611.69;;;24.91;94.88
56042;BME280;48756;41.374;2.066;2023-09-18T05:19:44;100620.09;;;24.98;94.53
56042;BME280;48756;41.374;2.066;2023-09-18T05:22:10;100612.66;;;25.03;95.26
56042;BME280;48756;41.374;2.066;2023-09-18T05:24:40;100611.22;;;25.10;95.97
56042;BME280;48756;41.374;2.066;2023-09-18T05:27:06;100630.00;;;25.09;95.75
56042;BME280;48756;41.374;2.066;2023-09-18T05:29:33;100633.13;;;25.02;96.04
56042;BME280;48756;41.374;2.066;2023-09-18T05:31:58;100644.63;;;24.90;94.87
56042;BME280;48756;41.374;2.066;2023-09-18T05:34:24;100652.00;;;24.99;95.47
56042;BME280;48756;41.374;2.066;2023-09-18T05:36:50;100659.66;;;25.04;95.57
56042;BME280;48756;41.374;2.066;2023-09-18T05:39:16;100662.25;;;24.67;95.24
56042;BME280;48756;41.374;2.066;2023-09-18T05:41:42;100657.19;;;24.88;96.57
56042;BME280;48756;41.374;2.066;2023-09-18T05:44:08;100665.53;;;25.09;96.10
56042;BME280;48756;41.374;2.066;2023-09-18T05:46:35;100669.91;;;24.97;94.32
56042;BME280;48756;41.374;2.066;2023-09-18T05:49:01;100674.16;;;24.87;95.63
56042;BME280;48756;41.374;2.066;2023-09-18T05:51:26;100683.09;;;24.86;96.85
56042;BME280;48756;41.374;2.066;2023-09-18T05:53:52;100678.97;;;24.95;96.85
56042;BME280;48756;41.374;2.066;2023-09-18T05:56:18;100678.34;;;24.91;95.73
56042;BME280;48756;41.374;2.066;2023-09-18T05:58:44;100684.19;;;24.84;95.46
56042;BME280;48756;41.374;2.066;2023-09-18T06:01:09;100687.59;;;24.86;96.41
56042;BME280;48756;41.374;2.066;2023-09-18T06:03:35;100677.03;;;24.84;95.82
56042;BME280;48756;41.374;2.066;2023-09-18T06:06:05;100670.22;;;24.80;95.31
56042;BME280;48756;41.374;2.066;2023-09-18T06:08:31;100678.13;;;24.69;94.99
56042;BME280;48756;41.374;2.066;2023-09-18T06:10:59;100681.41;;;24.60;95.20
56042;BME280;48756;41.374;2.066;2023-09-18T06:13:25;100675.75;;;24.52;94.57
56042;BME280;48756;41.374;2.066;2023-09-18T06:15:53;100679.47;;;24.62;94.10
56042;BME280;48756;41.374;2.066;2023-09-18T06:18:21;100683.38;;;24.43;94.94
56042;BME280;48756;41.374;2.066;2023-09-18T06:20:47;100694.47;;;24.37;93.62
56042;BME280;48756;41.374;2.066;2023-09-18T06:23:13;100705.25;;;24.49;93.48
56042;BME280;48756;41.374;2.066;2023-09-18T06:25:39;100701.53;;;24.64;91.03
56042;BME280;48756;41.374;2.066;2023-09-18T06:28:05;100698.03;;;24.51;90.14
56042;BME280;48756;41.374;2.066;2023-09-18T06:30:31;100701.66;;;24.50;90.11
56042;BME280;48756;41.374;2.066;2023-09-18T06:32:59;100707.94;;;24.49;89.07
56042;BME280;48756;41.374;2.066;2023-09-18T06:35:25;100705.59;;;24.57;88.46
56042;BME280;48756;41.374;2.066;2023-09-18T06:37:50;100709.34;;;24.67;87.90
56042;BME280;48756;41.374;2.066;2023-09-18T06:40:16;100698.56;;;24.81;87.02
56042;BME280;48756;41.374;2.066;2023-09-18T06:42:42;100681.09;;;24.90;86.87
56042;BME280;48756;41.374;2.066;2023-09-18T06:45:08;100683.78;;;25.02;85.08
56042;BME280;48756;41.374;2.066;2023-09-18T06:47:34;100693.75;;;24.86;85.53
56042;BME280;48756;41.374;2.066;2023-09-18T06:50:00;100695.16;;;24.79;85.96
56042;BME280;48756;41.374;2.066;2023-09-18T06:52:26;100688.13;;;24.78;85.76
56042;BME280;48756;41.374;2.066;2023-09-18T06:54:53;100676.41;;;24.93;83.84
56042;BME280;48756;41.374;2.066;2023-09-18T06:57:19;100668.06;;;24.85;84.84
56042;BME280;48756;41.374;2.066;2023-09-18T06:59:47;100664.16;;;24.91;86.00
56042;BME280;48756;41.374;2.066;2023-09-18T07:02:13;100664.47;;;24.99;84.78
56042;BME280;48756;41.374;2.066;2023-09-18T07:04:42;100669.47;;;25.03;83.31
56042;BME280;48756;41.374;2.066;2023-09-18T07:07:14;100669.38;;;25.18;83.62
56042;BME280;48756;41.374;2.066;2023-09-18T07:09:40;100675.94;;;25.38;82.46
56042;BME280;48756;41.374;2.066;2023-09-18T07:12:07;100673.78;;;25.43;81.19
56042;BME280;48756;41.374;2.066;2023-09-18T07:14:34;100678.78;;;25.47;81.05
56042;BME280;48756;41.374;2.066;2023-09-18T07:16:59;100687.84;;;25.57;80.56
56042;BME280;48756;41.374;2.066;2023-09-18T07:19:26;100691.75;;;25.64;79.92
56042;BME280;48756;41.374;2.066;2023-09-18T07:21:52;100698.38;;;25.72;79.99
56042;BME280;48756;41.374;2.066;2023-09-18T07:24:17;100719.41;;;26.00;79.25
56042;BME280;48756;41.374;2.066;2023-09-18T07:26:47;100721.69;;;26.17;77.73
56042;BME280;48756;41.374;2.066;2023-09-18T07:29:13;100732.63;;;26.02;77.39
56042;BME280;48756;41.374;2.066;2023-09-18T07:31:41;100726.75;;;26.09;77.94
56042;BME280;48756;41.374;2.066;2023-09-18T07:34:07;100724.84;;;26.22;76.58
56042;BME280;48756;41.374;2.066;2023-09-18T07:36:33;100738.44;;;26.19;76.89
56042;BME280;48756;41.374;2.066;2023-09-18T07:38:58;100743.22;;;26.03;76.92
56042;BME280;48756;41.374;2.066;2023-09-18T07:41:24;100749.47;;;26.15;77.22
56042;BME280;48756;41.374;2.066;2023-09-18T07:43:50;100746.63;;;26.29;76.73
56042;BME280;48756;41.374;2.066;2023-09-18T07:46:25;100751.28;;;26.14;75.94
56042;BME280;48756;41.374;2.066;2023-09-18T07:48:50;100749.50;;;26.02;77.23
56042;BME280;48756;41.374;2.066;2023-09-18T07:51:16;100758.66;;;25.87;78.25
56042;BME280;48756;41.374;2.066;2023-09-18T07:53:42;100761.38;;;25.98;77.53
56042;BME280;48756;41.374;2.066;2023-09-18T07:56:08;100765.66;;;26.01;77.71
56042;BME280;48756;41.374;2.066;2023-09-18T07:58:34;100752.19;;;26.02;77.15
56042;BME280;48756;41.374;2.066;2023-09-18T08:01:04;100754.41;;;26.08;76.11
56042;BME280;48756;41.374;2.066;2023-09-18T08:03:35;100754.88;;;26.26;73.61
56042;BME280;48756;41.374;2.066;2023-09-18T08:06:01;100755.09;;;26.47;72.03
56042;BME280;48756;41.374;2.066;2023-09-18T08:08:27;100765.09;;;26.08;69.42
56042;BME280;48756;41.374;2.066;2023-09-18T08:10:53;100763.09;;;26.23;67.67
56042;BME280;48756;41.374;2.066;2023-09-18T08:13:18;100752.22;;;26.50;66.43
56042;BME280;48756;41.374;2.066;2023-09-18T08:15:45;100764.19;;;26.79;66.26
56042;BME280;48756;41.374;2.066;2023-09-18T08:18:11;100759.63;;;26.58;62.54
56042;BME280;48756;41.374;2.066;2023-09-18T08:20:42;100761.66;;;26.78;62.47
56042;BME280;48756;41.374;2.066;2023-09-18T08:23:09;100765.41;;;26.75;62.11
56042;BME280;48756;41.374;2.066;2023-09-18T08:25:34;100776.78;;;26.66;62.25
56042;BME280;48756;41.374;2.066;2023-09-18T08:28:00;100776.94;;;26.41;58.43
56042;BME280;48756;41.374;2.066;2023-09-18T08:30:26;100771.13;;;26.71;57.14
56042;BME280;48756;41.374;2.066;2023-09-18T08:32:52;100774.34;;;26.98;56.49
56042;BME280;48756;41.374;2.066;2023-09-18T08:35:17;100779.75;;;26.85;54.99
56042;BME280;48756;41.374;2.066;2023-09-18T08:37:43;100777.00;;;26.98;54.11
56042;BME280;48756;41.374;2.066;2023-09-18T08:40:13;100784.47;;;27.06;53.45
56042;BME280;48756;41.374;2.066;2023-09-18T08:42:41;100783.28;;;27.21;53.94
56042;BME280;48756;41.374;2.066;2023-09-18T08:45:10;100786.31;;;27.28;52.31
56042;BME280;48756;41.374;2.066;2023-09-18T08:47:40;100776.97;;;26.76;50.75
56042;BME280;48756;41.374;2.066;2023-09-18T08:50:08;100781.53;;;27.09;50.62
56042;BME280;48756;41.374;2.066;2023-09-18T08:52:36;100794.22;;;27.29;50.16
56042;BME280;48756;41.374;2.066;2023-09-18T08:55:03;100790.56;;;27.19;48.80
56042;BME280;48756;41.374;2.066;2023-09-18T08:57:30;100797.38;;;27.34;49.12
56042;BME280;48756;41.374;2.066;2023-09-18T08:59:56;100799.94;;;27.36;47.35
56042;BME280;48756;41.374;2.066;2023-09-18T09:02:23;100796.78;;;27.53;47.38
56042;BME280;48756;41.374;2.066;2023-09-18T09:04:49;100804.72;;;27.77;47.21
56042;BME280;48756;41.374;2.066;2023-09-18T09:07:15;100802.50;;;27.93;45.88
56042;BME280;48756;41.374;2.066;2023-09-18T09:09:41;100805.16;;;28.16;45.12
56042;BME280;48756;41.374;2.066;2023-09-18T09:12:07;100805.94;;;27.84;44.69
56042;BME280;48756;41.374;2.066;2023-09-18T09:14:33;100810.94;;;27.66;43.83
56042;BME280;48756;41.374;2.066;2023-09-18T09:16:59;100812.13;;;26.94;44.02
56042;BME280;48756;41.374;2.066;2023-09-18T09:19:33;100806.03;;;27.49;43.12
56042;BME280;48756;41.374;2.066;2023-09-18T09:22:02;100822.31;;;27.35;43.79
56042;BME280;48756;41.374;2.066;2023-09-18T09:24:41;100806.75;;;27.51;42.87
56042;BME280;48756;41.374;2.066;2023-09-18T09:27:10;100805.69;;;27.76;42.72
56042;BME280;48756;41.374;2.066;2023-09-18T09:29:36;100800.59;;;27.84;42.25
56042;BME280;48756;41.374;2.066;2023-09-18T09:32:18;100798.75;;;27.73;42.11
56042;BME280;48756;41.374;2.066;2023-09-18T09:34:45;100797.63;;;28.10;42.52
56042;BME280;48756;41.374;2.066;2023-09-18T09:37:11;100804.97;;;27.85;41.76
56042;BME280;48756;41.374;2.066;2023-09-18T09:39:49;100800.75;;;28.15;42.06
56042;BME280;48756;41.374;2.066;2023-09-18T09:42:17;100797.28;;;28.46;41.36
56042;BME280;48756;41.374;2.066;2023-09-18T09:45:09;100797.06;;;28.38;40.79
56042;BME280;48756;41.374;2.066;2023-09-18T09:47:37;100798.09;;;28.15;41.61
56042;BME280;48756;41.374;2.066;2023-09-18T09:50:08;100801.38;;;28.29;40.73
56042;BME280;48756;41.374;2.066;2023-09-18T09:52:35;100792.41;;;27.97;41.35
56042;BME280;48756;41.374;2.066;2023-09-18T09:55:02;100794.44;;;28.59;40.42
56042;BME280;48756;41.374;2.066;2023-09-18T09:57:30;100795.94;;;28.73;40.08
56042;BME280;48756;41.374;2.066;2023-09-18T10:00:04;100796.63;;;29.07;39.65
56042;BME280;48756;41.374;2.066;2023-09-18T10:02:47;100802.84;;;29.07;39.29
56042;BME280;48756;41.374;2.066;2023-09-18T10:05:15;100792.16;;;28.96;39.45
56042;BME280;48756;41.374;2.066;2023-09-18T10:07:43;100796.03;;;29.24;39.01
56042;BME280;48756;41.374;2.066;2023-09-18T10:10:09;100802.25;;;29.24;38.85
56042;BME280;48756;41.374;2.066;2023-09-18T10:12:36;100807.50;;;29.05;38.00
56042;BME280;48756;41.374;2.066;2023-09-18T10:15:04;100810.03;;;28.86;38.80
56042;BME280;48756;41.374;2.066;2023-09-18T10:17:32;100813.69;;;29.47;38.09
56042;BME280;48756;41.374;2.066;2023-09-18T10:20:07;100814.56;;;29.06;38.16
56042;BME280;48756;41.374;2.066;2023-09-18T10:22:44;100819.41;;;29.12;37.89
56042;BME280;48756;41.374;2.066;2023-09-18T10:25:15;100814.28;;;29.51;37.11
56042;BME280;48756;41.374;2.066;2023-09-18T10:27:46;100813.72;;;29.57;36.81
56042;BME280;48756;41.374;2.066;2023-09-18T10:30:13;100821.34;;;29.52;36.07
56042;BME280;48756;41.374;2.066;2023-09-18T10:32:44;100816.63;;;29.44;36.95
56042;BME280;48756;41.374;2.066;2023-09-18T10:35:14;100808.22;;;29.99;36.31
56042;BME280;48756;41.374;2.066;2023-09-18T10:37:42;100811.88;;;29.88;35.79
56042;BME280;48756;41.374;2.066;2023-09-18T10:40:12;100802.88;;;30.08;35.43
56042;BME280;48756;41.374;2.066;2023-09-18T10:42:39;100803.22;;;29.75;36.68
56042;BME280;48756;41.374;2.066;2023-09-18T10:45:07;100814.31;;;29.61;36.71
56042;BME280;48756;41.374;2.066;2023-09-18T10:47:38;100806.91;;;29.83;36.69
56042;BME280;48756;41.374;2.066;2023-09-18T10:50:05;100806.59;;;29.77;36.78
56042;BME280;48756;41.374;2.066;2023-09-18T10:52:34;100806.75;;;29.85;35.93
56042;BME280;48756;41.374;2.066;2023-09-18T10:55:01;100810.84;;;30.29;35.61
56042;BME280;48756;41.374;2.066;2023-09-18T10:57:33;100804.69;;;29.98;35.08
56042;BME280;48756;41.374;2.066;2023-09-18T10:59:59;100803.38;;;30.42;34.99
56042;BME280;48756;41.374;2.066;2023-09-18T11:02:34;100807.94;;;30.81;34.92
56042;BME280;48756;41.374;2.066;2023-09-18T11:05:02;100813.72;;;30.86;34.07
56042;BME280;48756;41.374;2.066;2023-09-18T11:07:32;100803.34;;;30.52;34.74
56042;BME280;48756;41.374;2.066;2023-09-18T11:09:58;100797.88;;;30.63;34.83
56042;BME280;48756;41.374;2.066;2023-09-18T11:12:43;100798.69;;;30.54;34.17
56042;BME280;48756;41.374;2.066;2023-09-18T11:15:25;100795.44;;;30.41;34.58
56042;BME280;48756;41.374;2.066;2023-09-18T11:17:59;100797.25;;;30.11;35.13
56042;BME280;48756;41.374;2.066;2023-09-18T11:20:33;100801.09;;;30.18;35.29
56042;BME280;48756;41.374;2.066;2023-09-18T11:23:10;100802.66;;;30.50;34.69
56042;BME280;48756;41.374;2.066;2023-09-18T11:25:42;100807.47;;;30.46;35.28
56042;BME280;48756;41.374;2.066;2023-09-18T11:28:15;100808.88;;;30.31;34.81
56042;BME280;48756;41.374;2.066;2023-09-18T11:30:51;100807.06;;;29.51;35.89
56042;BME280;48756;41.374;2.066;2023-09-18T11:33:33;100816.84;;;29.62;36.27
56042;BME280;48756;41.374;2.066;2023-09-18T11:36:08;100806.91;;;30.33;35.73
56042;BME280;48756;41.374;2.066;2023-09-18T11:38:56;100810.41;;;30.14;34.79
56042;BME280;48756;41.374;2.066;2023-09-18T11:41:26;100809.88;;;30.49;34.70
56042;BME280;48756;41.374;2.066;2023-09-18T11:46:39;100822.16;;;30.23;33.97
56042;BME280;48756;41.374;2.066;2023-09-18T11:49:08;100816.41;;;30.37;33.71
56042;BME280;48756;41.374;2.066;2023-09-18T11:51:36;100811.41;;;30.23;34.27
56042;BME280;48756;41.374;2.066;2023-09-18T11:54:03;100816.41;;;30.57;33.81
56042;BME280;48756;41.374;2.066;2023-09-18T11:56:31;100801.00;;;30.78;32.76
56042;BME280;48756;41.374;2.066;2023-09-18T11:58:58;100792.06;;;30.77;33.61
56042;BME280;48756;41.374;2.066;2023-09-18T12:01:24;100788.78;;;31.03;33.20
56042;BME280;48756;41.374;2.066;2023-09-18T12:03:55;100787.56;;;30.78;32.98
56042;BME280;48756;41.374;2.066;2023-09-18T12:06:21;100793.00;;;31.25;33.19
56042;BME280;48756;41.374;2.066;2023-09-18T12:08:48;100783.00;;;30.78;33.05
56042;BME280;48756;41.374;2.066;2023-09-18T12:11:16;100786.66;;;30.20;33.19
56042;BME280;48756;41.374;2.066;2023-09-18T12:13:46;100785.50;;;30.32;33.52
56042;BME280;48756;41.374;2.066;2023-09-18T12:16:13;100790.78;;;30.72;32.88
56042;BME280;48756;41.374;2.066;2023-09-18T12:18:48;100784.84;;;30.88;32.97
56042;BME280;48756;41.374;2.066;2023-09-18T12:21:15;100784.41;;;30.73;32.87
56042;BME280;48756;41.374;2.066;2023-09-18T12:23:42;100789.09;;;30.81;32.44
56042;BME280;48756;41.374;2.066;2023-09-18T12:26:11;100780.56;;;30.27;33.25
56042;BME280;48756;41.374;2.066;2023-09-18T12:28:39;100778.03;;;30.16;33.65
56042;BME280;48756;41.374;2.066;2023-09-18T12:31:10;100768.97;;;30.46;32.85
56042;BME280;48756;41.374;2.066;2023-09-18T12:33:37;100777.06;;;30.65;31.66
56042;BME280;48756;41.374;2.066;2023-09-18T12:36:03;100776.56;;;30.99;31.41
56042;BME280;48756;41.374;2.066;2023-09-18T12:38:30;100780.56;;;31.04;31.17
56042;BME280;48756;41.374;2.066;2023-09-18T12:40:56;100768.13;;;30.74;31.11
56042;BME280;48756;41.374;2.066;2023-09-18T12:43:34;100768.34;;;31.00;31.06
56042;BME280;48756;41.374;2.066;2023-09-18T12:46:01;100766.13;;;30.76;30.22
56042;BME280;48756;41.374;2.066;2023-09-18T12:48:28;100775.16;;;31.24;30.56
56042;BME280;48756;41.374;2.066;2023-09-18T12:50:54;100770.44;;;31.63;29.23
56042;BME280;48756;41.374;2.066;2023-09-18T12:53:22;100776.81;;;31.34;29.55
56042;BME280;48756;41.374;2.066;2023-09-18T12:55:48;100778.25;;;31.19;29.74